Time;durP1;ratioP1;P1;durP2;ratioP2;P2;SDS_P1;SDS_P2;PMS_P1;PMS_P2;Temp;Humidity;BMP_temperature;BMP_pressure;BME280_temperature;BME280_humidity;BME280_pressure;Samples;Min_cycle;Max_cycle;Signal;HPM_P1;HPM_P2
2022/07/08 00:00:42;;;;;;;8.57;1.50;;;;;;;;;;4948616;28;20572;-77
2022/07/08 00:03:10;;;;;;;12.73;1.70;;;;;;;;;;4941914;28;20215;-76
2022/07/08 00:05:38;;;;;;;10.47;2.00;;;;;;;;;;4944469;28;20987;-77
2022/07/08 00:08:06;;;;;;;5.33;1.40;;;;;;;;;;4942632;28;20202;-77
2022/07/08 00:10:34;;;;;;;7.20;1.63;;;;;;;;;;4944074;28;20209;-77
2022/07/08 00:13:01;;;;;;;4.33;1.30;;;;;;;;;;4942685;28;20218;-77
2022/07/08 00:15:29;;;;;;;9.23;1.63;;;;;;;;;;4942515;28;20316;-77
2022/07/08 00:17:57;;;;;;;9.90;1.87;;;;;;;;;;4948096;28;20217;-77
2022/07/08 00:20:24;;;;;;;9.53;2.10;;;;;;;;;;4941597;28;20213;-75
2022/07/08 00:22:51;;;;;;;6.30;1.53;;;;;;;;;;4942439;28;20216;-77
2022/07/08 00:25:20;;;;;;;8.17;1.87;;;;;;;;;;4943901;28;20726;-74
2022/07/08 00:27:47;;;;;;;5.77;1.67;;;;;;;;;;4944997;28;20208;-77
2022/07/08 00:30:14;;;;;;;9.00;1.90;;;;;;;;;;4949592;28;20246;-77
2022/07/08 00:32:41;;;;;;;10.03;1.57;;;;;;;;;;4947358;28;20202;-77
2022/07/08 00:35:09;;;;;;;6.13;1.67;;;;;;;;;;4941981;28;20332;-76
2022/07/08 00:37:36;;;;;;;10.40;1.63;;;;;;;;;;4946120;28;20233;-77
2022/07/08 00:40:03;;;;;;;9.03;1.80;;;;;;;;;;4945752;28;20317;-76
2022/07/08 00:42:32;;;;;;;6.63;1.50;;;;;;;;;;4942938;28;20207;-77
2022/07/08 00:44:59;;;;;;;7.10;1.60;;;;;;;;;;4942456;28;20264;-76
2022/07/08 00:47:26;;;;;;;5.87;1.30;;;;;;;;;;4946366;28;20261;-77
2022/07/08 00:49:54;;;;;;;10.90;1.60;;;;;;;;;;4944900;28;20253;-77
2022/07/08 00:52:21;;;;;;;9.10;1.50;;;;;;;;;;4945268;28;20289;-75
2022/07/08 00:54:48;;;;;;;7.37;1.50;;;;;;;;;;4947570;28;20229;-78
2022/07/08 00:57:16;;;;;;;4.90;1.57;;;;;;;;;;4947654;28;20225;-76
2022/07/08 00:59:45;;;;;;;7.53;1.63;;;;;;;;;;4948271;28;20275;-78
2022/07/08 01:02:12;;;;;;;5.10;1.63;;;;;;;;;;4945188;28;20206;-75
2022/07/08 01:04:39;;;;;;;9.63;1.67;;;;;;;;;;4943413;28;20719;-77
2022/07/08 01:07:07;;;;;;;7.37;1.40;;;;;;;;;;4945873;28;20324;-77
2022/07/08 01:09:34;;;;;;;7.87;1.53;;;;;;;;;;4945362;28;20296;-74
2022/07/08 01:12:02;;;;;;;9.63;1.63;;;;;;;;;;4948452;28;20617;-77
2022/07/08 01:14:29;;;;;;;7.83;1.67;;;;;;;;;;4945519;28;20249;-77
2022/07/08 01:16:57;;;;;;;8.93;1.60;;;;;;;;;;4943434;28;20224;-75
2022/07/08 01:19:25;;;;;;;12.33;1.83;;;;;;;;;;4945385;28;20820;-76
2022/07/08 01:21:55;;;;;;;5.27;1.60;;;;;;;;;;4947896;28;20658;-78
2022/07/08 01:24:23;;;;;;;6.03;1.83;;;;;;;;;;4946626;28;20226;-74
2022/07/08 01:26:50;;;;;;;10.17;1.67;;;;;;;;;;4946816;28;20305;-78
2022/07/08 01:29:17;;;;;;;5.60;1.80;;;;;;;;;;4945219;28;20296;-76
2022/07/08 01:31:45;;;;;;;5.20;1.50;;;;;;;;;;4945568;28;20301;-76
2022/07/08 01:34:12;;;;;;;10.27;1.70;;;;;;;;;;4949126;28;20309;-78
2022/07/08 01:36:39;;;;;;;7.30;1.93;;;;;;;;;;4951718;28;20665;-77
2022/07/08 01:39:08;;;;;;;8.57;2.03;;;;;;;;;;4950548;28;20210;-78
2022/07/08 01:41:35;;;;;;;4.83;1.80;;;;;;;;;;4943865;28;20657;-75
2022/07/08 01:44:02;;;;;;;13.83;1.70;;;;;;;;;;4943148;28;20210;-77
2022/07/08 01:46:29;;;;;;;7.17;2.17;;;;;;;;;;4946703;28;20207;-77
2022/07/08 01:48:56;;;;;;;10.77;2.07;;;;;;;;;;4947890;28;20298;-78
2022/07/08 01:51:24;;;;;;;4.77;1.83;;;;;;;;;;4943742;28;20733;-75
2022/07/08 01:53:51;;;;;;;12.70;1.90;;;;;;;;;;4947542;28;20270;-74
2022/07/08 01:56:20;;;;;;;5.83;1.77;;;;;;;;;;4945186;28;20312;-75
2022/07/08 01:58:47;;;;;;;9.33;2.30;;;;;;;;;;4943643;28;20211;-74
2022/07/08 02:01:14;;;;;;;7.67;1.83;;;;;;;;;;4944579;28;20207;-77
2022/07/08 02:03:41;;;;;;;10.50;2.07;;;;;;;;;;4942844;28;20207;-76
2022/07/08 02:06:09;;;;;;;7.33;1.57;;;;;;;;;;4948595;28;20325;-77
2022/07/08 02:08:36;;;;;;;5.50;1.77;;;;;;;;;;4951002;28;20214;-77
2022/07/08 02:13:49;;;;;;;10.80;2.47;;;;;;;;;;4946558;28;20743;-76
2022/07/08 02:16:16;;;;;;;12.87;2.60;;;;;;;;;;4948517;28;20233;-77
2022/07/08 02:18:43;;;;;;;9.07;1.93;;;;;;;;;;4948802;28;20206;-77
2022/07/08 02:21:11;;;;;;;4.23;1.67;;;;;;;;;;4950997;28;20274;-77
2022/07/08 02:23:38;;;;;;;9.87;1.60;;;;;;;;;;4942201;28;20419;-75
2022/07/08 02:26:05;;;;;;;7.20;2.17;;;;;;;;;;4948723;28;20218;-77
2022/07/08 02:28:32;;;;;;;5.93;2.03;;;;;;;;;;4947093;28;20213;-76
2022/07/08 02:31:01;;;;;;;12.17;2.50;;;;;;;;;;4980742;23;21922;-81
2022/07/08 02:33:54;;;;;;;10.20;2.10;;;;;;;;;;4965082;28;20241;-80
2022/07/08 02:36:31;;;;;;;7.23;1.90;;;;;;;;;;4967173;28;20210;-80
2022/07/08 02:38:59;;;;;;;6.13;2.03;;;;;;;;;;4961270;28;20239;-79
2022/07/08 02:41:29;;;;;;;9.80;2.40;;;;;;;;;;4949151;29;20215;-81
2022/07/08 02:43:57;;;;;;;9.90;2.23;;;;;;;;;;4961866;28;20207;-80
2022/07/08 02:46:29;;;;;;;7.20;2.00;;;;;;;;;;4957812;28;20275;-80
2022/07/08 02:48:56;;;;;;;6.87;2.10;;;;;;;;;;4949812;29;20218;-81
2022/07/08 02:51:27;;;;;;;8.87;2.10;;;;;;;;;;4938434;29;20651;-81
2022/07/08 02:53:58;;;;;;;4.30;2.17;;;;;;;;;;4949785;29;20247;-80
2022/07/08 02:56:25;;;;;;;8.10;1.90;;;;;;;;;;4949727;29;20243;-81
2022/07/08 02:58:54;;;;;;;5.43;1.90;;;;;;;;;;4950077;29;20255;-80
2022/07/08 03:01:21;;;;;;;14.43;2.20;;;;;;;;;;4943170;29;20222;-80
2022/07/08 03:03:58;;;;;;;6.77;2.00;;;;;;;;;;4943390;29;20213;-81
2022/07/08 03:06:42;;;;;;;7.13;2.40;;;;;;;;;;4947735;29;20206;-81
2022/07/08 03:09:13;;;;;;;8.03;2.33;;;;;;;;;;4945563;29;20304;-80
2022/07/08 03:11:40;;;;;;;7.10;2.10;;;;;;;;;;4946060;29;20235;-80
2022/07/08 03:14:07;;;;;;;7.03;2.77;;;;;;;;;;4942282;29;20226;-81
2022/07/08 03:16:48;;;;;;;5.53;2.33;;;;;;;;;;4945252;28;20238;-80
2022/07/08 03:19:25;;;;;;;8.33;2.30;;;;;;;;;;4946809;29;20231;-80
2022/07/08 03:22:07;;;;;;;8.77;2.13;;;;;;;;;;4946048;29;20646;-81
2022/07/08 03:24:44;;;;;;;10.43;2.20;;;;;;;;;;4944321;29;20629;-81
2022/07/08 03:27:16;;;;;;;8.57;1.97;;;;;;;;;;4949124;29;20293;-81
2022/07/08 03:29:44;;;;;;;9.57;2.07;;;;;;;;;;4948935;28;20249;-80
2022/07/08 03:32:14;;;;;;;8.00;2.30;;;;;;;;;;4954161;29;20208;-80
2022/07/08 03:34:42;;;;;;;10.37;2.20;;;;;;;;;;4951863;29;20617;-80
2022/07/08 03:37:10;;;;;;;4.63;2.10;;;;;;;;;;4954877;29;20238;-81
2022/07/08 03:39:40;;;;;;;8.57;2.50;;;;;;;;;;4951570;28;20222;-80
2022/07/08 03:42:08;;;;;;;10.70;2.70;;;;;;;;;;4945267;29;20203;-81
2022/07/08 03:44:38;;;;;;;5.60;2.00;;;;;;;;;;4946184;29;20206;-81
2022/07/08 03:47:08;;;;;;;11.40;2.47;;;;;;;;;;4945772;29;20274;-80
2022/07/08 03:52:43;;;;;;;7.37;2.23;;;;;;;;;;4948947;29;20264;-80
2022/07/08 03:55:13;;;;;;;8.30;2.33;;;;;;;;;;4951435;29;20222;-80
2022/07/08 03:57:45;;;;;;;7.13;2.00;;;;;;;;;;4948775;29;20293;-80
2022/07/08 04:00:14;;;;;;;6.10;2.40;;;;;;;;;;4947624;29;20238;-81
2022/07/08 04:02:44;;;;;;;11.97;2.53;;;;;;;;;;4944498;29;20206;-80
2022/07/08 04:05:43;;;;;;;5.73;2.30;;;;;;;;;;4947932;29;20214;-79
2022/07/08 04:08:12;;;;;;;8.87;2.80;;;;;;;;;;4947709;29;20203;-80
2022/07/08 04:10:41;;;;;;;8.43;1.80;;;;;;;;;;4947942;28;20230;-80
2022/07/08 04:13:13;;;;;;;13.50;2.27;;;;;;;;;;4944553;29;20199;-80
2022/07/08 04:15:40;;;;;;;8.10;1.90;;;;;;;;;;4947921;29;20202;-81
2022/07/08 04:18:07;;;;;;;8.50;1.53;;;;;;;;;;4948853;29;20274;-81
2022/07/08 04:20:44;;;;;;;4.83;1.50;;;;;;;;;;4943849;29;20230;-80
2022/07/08 04:26:18;;;;;;;6.97;1.40;;;;;;;;;;4942893;29;20210;-82
2022/07/08 04:28:49;;;;;;;8.67;1.70;;;;;;;;;;4939167;29;20215;-81
2022/07/08 04:31:16;;;;;;;8.33;1.67;;;;;;;;;;4945499;29;20230;-82
2022/07/08 04:33:43;;;;;;;5.60;1.00;;;;;;;;;;4944596;29;20213;-81
2022/07/08 04:36:19;;;;;;;9.87;1.10;;;;;;;;;;4944812;29;20218;-80
2022/07/08 04:39:14;;;;;;;9.13;1.73;;;;;;;;;;4941271;29;20503;-81
2022/07/08 04:41:46;;;;;;;6.10;1.30;;;;;;;;;;4940939;29;20207;-81
2022/07/08 04:44:14;;;;;;;7.73;1.53;;;;;;;;;;4945444;29;20207;-80
2022/07/08 04:46:41;;;;;;;6.33;1.17;;;;;;;;;;4945207;29;20214;-80
2022/07/08 04:49:18;;;;;;;4.87;1.10;;;;;;;;;;4947992;29;20287;-80
2022/07/08 04:51:45;;;;;;;4.43;1.03;;;;;;;;;;4946063;29;20572;-80
2022/07/08 04:54:14;;;;;;;3.53;1.20;;;;;;;;;;4943171;29;20216;-79
2022/07/08 04:56:48;;;;;;;6.83;1.37;;;;;;;;;;4944844;29;20210;-79
2022/07/08 04:59:17;;;;;;;9.87;1.47;;;;;;;;;;4943904;29;20228;-79
2022/07/08 05:01:44;;;;;;;10.67;1.37;;;;;;;;;;4936276;29;20212;-80
2022/07/08 05:04:21;;;;;;;5.33;1.43;;;;;;;;;;4939376;29;20214;-80
2022/07/08 05:06:56;;;;;;;12.83;1.20;;;;;;;;;;4943157;29;20301;-80
2022/07/08 05:09:23;;;;;;;6.13;1.00;;;;;;;;;;4940097;29;20310;-81
2022/07/08 05:11:57;;;;;;;7.50;1.10;;;;;;;;;;4940508;29;20219;-81
2022/07/08 05:14:29;;;;;;;6.70;1.40;;;;;;;;;;4940163;29;20215;-82
2022/07/08 05:17:15;;;;;;;7.13;1.40;;;;;;;;;;4939868;29;20206;-80
2022/07/08 05:19:45;;;;;;;4.00;0.90;;;;;;;;;;4940334;29;20842;-81
2022/07/08 05:22:13;;;;;;;8.07;1.77;;;;;;;;;;4942271;29;20233;-81
2022/07/08 05:24:40;;;;;;;3.83;1.23;;;;;;;;;;4938952;29;20210;-79
2022/07/08 05:27:13;;;;;;;5.00;1.10;;;;;;;;;;4942336;29;20247;-80
2022/07/08 05:29:45;;;;;;;6.97;1.20;;;;;;;;;;4942414;29;20239;-81
2022/07/08 05:32:13;;;;;;;8.07;1.53;;;;;;;;;;4941390;29;20731;-79
2022/07/08 05:34:41;;;;;;;7.40;1.33;;;;;;;;;;4946259;29;20238;-81
2022/07/08 05:37:15;;;;;;;5.43;1.20;;;;;;;;;;4945688;29;20207;-81
2022/07/08 05:39:52;;;;;;;6.30;0.93;;;;;;;;;;4938056;29;20226;-81
2022/07/08 05:42:21;;;;;;;7.13;1.20;;;;;;;;;;4952212;29;20212;-80
2022/07/08 05:44:50;;;;;;;6.73;1.40;;;;;;;;;;4946139;29;20206;-80
2022/07/08 05:47:18;;;;;;;8.83;1.10;;;;;;;;;;4950144;29;20206;-81
2022/07/08 05:49:46;;;;;;;11.93;1.80;;;;;;;;;;4947845;29;20248;-79
2022/07/08 05:52:21;;;;;;;8.47;1.30;;;;;;;;;;4945312;29;20229;-81
2022/07/08 05:54:50;;;;;;;5.37;1.33;;;;;;;;;;4940983;29;20202;-81
2022/07/08 05:57:21;;;;;;;7.53;1.33;;;;;;;;;;4947612;29;20203;-80
2022/07/08 05:59:54;;;;;;;3.90;1.00;;;;;;;;;;4939384;28;20238;-80
2022/07/08 06:02:22;;;;;;;3.13;1.23;;;;;;;;;;4946364;29;20211;-80
2022/07/08 06:04:53;;;;;;;8.53;1.90;;;;;;;;;;4946397;29;20230;-81
2022/07/08 06:07:25;;;;;;;10.93;1.60;;;;;;;;;;4948201;29;20207;-82
2022/07/08 06:10:01;;;;;;;4.93;1.37;;;;;;;;;;4945812;29;20225;-79
2022/07/08 06:12:28;;;;;;;5.93;1.40;;;;;;;;;;4950393;29;20209;-81
2022/07/08 06:14:57;;;;;;;9.63;1.70;;;;;;;;;;4946214;29;20199;-79
2022/07/08 06:17:25;;;;;;;5.90;1.13;;;;;;;;;;4950621;29;20199;-80
2022/07/08 06:19:58;;;;;;;7.87;1.37;;;;;;;;;;4943563;29;20226;-80
2022/07/08 06:22:35;;;;;;;10.00;1.73;;;;;;;;;;4942803;29;20211;-80
2022/07/08 06:25:03;;;;;;;5.40;1.30;;;;;;;;;;4948260;29;20210;-80
2022/07/08 06:27:31;;;;;;;5.00;1.20;;;;;;;;;;4943038;29;20753;-82
2022/07/08 06:30:00;;;;;;;3.73;1.40;;;;;;;;;;4944483;29;20238;-80
2022/07/08 06:32:27;;;;;;;5.73;1.30;;;;;;;;;;4947119;29;20210;-83
2022/07/08 06:34:55;;;;;;;6.47;1.20;;;;;;;;;;4945195;29;20202;-80
2022/07/08 06:37:22;;;;;;;6.00;1.20;;;;;;;;;;4940402;29;20218;-80
2022/07/08 06:39:55;;;;;;;8.87;1.77;;;;;;;;;;4942449;29;20261;-79
2022/07/08 06:42:32;;;;;;;6.53;1.40;;;;;;;;;;4941910;29;20219;-80
2022/07/08 06:45:02;;;;;;;8.87;1.60;;;;;;;;;;4945910;29;20342;-80
2022/07/08 06:47:29;;;;;;;5.70;1.43;;;;;;;;;;4946885;29;20203;-81
2022/07/08 06:49:56;;;;;;;6.27;1.30;;;;;;;;;;4943045;29;20249;-80
2022/07/08 06:52:24;;;;;;;8.17;1.67;;;;;;;;;;4937095;29;20647;-81
2022/07/08 06:54:51;;;;;;;7.63;2.27;;;;;;;;;;4947217;29;20210;-79
2022/07/08 06:57:21;;;;;;;10.57;1.43;;;;;;;;;;4947748;29;20210;-81
2022/07/08 06:59:52;;;;;;;8.37;1.40;;;;;;;;;;4944789;29;20265;-81
2022/07/08 07:02:26;;;;;;;7.83;1.70;;;;;;;;;;4951587;29;20581;-81
2022/07/08 07:05:01;;;;;;;7.23;1.80;;;;;;;;;;4948174;29;20632;-79
2022/07/08 07:07:28;;;;;;;6.30;1.23;;;;;;;;;;4953017;29;20229;-80
2022/07/08 07:09:56;;;;;;;4.73;1.03;;;;;;;;;;4952329;28;20268;-81
2022/07/08 07:12:26;;;;;;;9.33;1.97;;;;;;;;;;4944224;29;20211;-81
2022/07/08 07:15:02;;;;;;;7.87;1.60;;;;;;;;;;4942183;29;20287;-81
2022/07/08 07:17:31;;;;;;;7.60;1.30;;;;;;;;;;4946274;29;20576;-85
2022/07/08 07:19:59;;;;;;;6.97;1.60;;;;;;;;;;4942402;29;20266;-82
2022/07/08 07:22:26;;;;;;;11.43;1.73;;;;;;;;;;4949435;29;20221;-81
2022/07/08 07:24:54;;;;;;;7.60;1.70;;;;;;;;;;4947741;29;20630;-81
2022/07/08 07:27:21;;;;;;;6.33;1.40;;;;;;;;;;4943726;29;20230;-80
2022/07/08 07:29:49;;;;;;;6.17;1.33;;;;;;;;;;4945787;28;20237;-81
2022/07/08 07:32:16;;;;;;;7.80;1.30;;;;;;;;;;4947098;29;20211;-81
2022/07/08 07:34:45;;;;;;;5.37;1.00;;;;;;;;;;4947007;29;20495;-80
2022/07/08 07:37:15;;;;;;;5.13;1.30;;;;;;;;;;4940881;29;20207;-82
2022/07/08 07:39:44;;;;;;;7.47;1.30;;;;;;;;;;4946804;28;20314;-82
2022/07/08 07:42:11;;;;;;;4.53;0.97;;;;;;;;;;4944564;29;20693;-81
2022/07/08 07:44:46;;;;;;;4.13;1.23;;;;;;;;;;4941441;29;20211;-82
2022/07/08 07:49:56;;;;;;;4.60;1.20;;;;;;;;;;4949479;28;20246;-80
2022/07/08 07:52:24;;;;;;;9.07;1.63;;;;;;;;;;4951596;29;20210;-81
2022/07/08 07:54:51;;;;;;;6.50;1.20;;;;;;;;;;4952876;29;20216;-82
2022/07/08 07:57:21;;;;;;;5.97;1.50;;;;;;;;;;4953765;29;20277;-81
2022/07/08 07:59:49;;;;;;;4.73;1.10;;;;;;;;;;4947007;28;20294;-81
2022/07/08 08:02:20;;;;;;;6.93;1.20;;;;;;;;;;4956094;28;20243;-80
2022/07/08 08:04:48;;;;;;;4.97;1.33;;;;;;;;;;4949742;29;20420;-80
2022/07/08 08:07:19;;;;;;;8.13;1.43;;;;;;;;;;4948776;29;20207;-80
2022/07/08 08:09:55;;;;;;;5.47;1.20;;;;;;;;;;4949472;28;20257;-81
2022/07/08 08:12:22;;;;;;;2.93;1.13;;;;;;;;;;4949035;29;20210;-80
2022/07/08 08:14:50;;;;;;;3.77;1.10;;;;;;;;;;4948138;29;20199;-82
2022/07/08 08:17:20;;;;;;;4.43;1.00;;;;;;;;;;4947991;29;20218;-80
2022/07/08 08:19:47;;;;;;;6.60;1.50;;;;;;;;;;4951098;29;20302;-81
2022/07/08 08:22:15;;;;;;;7.73;1.30;;;;;;;;;;4951309;29;20270;-81
2022/07/08 08:24:46;;;;;;;8.13;1.30;;;;;;;;;;4954319;29;20217;-81
2022/07/08 08:27:16;;;;;;;7.07;1.20;;;;;;;;;;4954950;29;20235;-82
2022/07/08 08:29:43;;;;;;;10.10;1.40;;;;;;;;;;4949296;28;20235;-81
2022/07/08 08:32:11;;;;;;;3.93;1.00;;;;;;;;;;4957358;29;20283;-81
2022/07/08 08:34:41;;;;;;;7.20;1.30;;;;;;;;;;4952732;29;20222;-82
2022/07/08 08:37:08;;;;;;;6.53;1.53;;;;;;;;;;4946894;29;20210;-81
2022/07/08 08:39:52;;;;;;;6.77;1.60;;;;;;;;;;4947811;28;20239;-81
2022/07/08 08:42:23;;;;;;;5.73;1.17;;;;;;;;;;4951611;29;20686;-82
2022/07/08 08:44:53;;;;;;;3.87;1.27;;;;;;;;;;4949241;29;20192;-79
2022/07/08 08:47:24;;;;;;;6.07;1.40;;;;;;;;;;4949181;29;20219;-81
2022/07/08 08:49:55;;;;;;;4.40;1.47;;;;;;;;;;4951350;29;20236;-80
2022/07/08 08:52:25;;;;;;;5.97;1.20;;;;;;;;;;4948583;29;20238;-81
2022/07/08 08:54:53;;;;;;;4.57;1.10;;;;;;;;;;4950983;29;20293;-81
2022/07/08 08:57:25;;;;;;;4.67;1.30;;;;;;;;;;4949552;29;20299;-81
2022/07/08 08:59:53;;;;;;;6.70;1.17;;;;;;;;;;4951019;28;20251;-81
2022/07/08 09:02:21;;;;;;;5.27;1.43;;;;;;;;;;4949713;29;20214;-81
2022/07/08 09:04:49;;;;;;;4.67;1.20;;;;;;;;;;4952484;29;20215;-80
2022/07/08 09:07:19;;;;;;;10.47;1.37;;;;;;;;;;4950410;29;20209;-80
2022/07/08 09:09:47;;;;;;;5.07;1.50;;;;;;;;;;4949308;28;20227;-80
2022/07/08 09:12:22;;;;;;;5.53;1.40;;;;;;;;;;4950624;29;20230;-81
2022/07/08 09:14:54;;;;;;;8.13;1.30;;;;;;;;;;4950089;28;20211;-81
2022/07/08 09:17:25;;;;;;;6.30;1.80;;;;;;;;;;4949068;29;20872;-81
2022/07/08 09:19:52;;;;;;;5.70;1.33;;;;;;;;;;4947016;29;20229;-80
2022/07/08 09:22:22;;;;;;;5.27;1.30;;;;;;;;;;4949249;29;20206;-80
2022/07/08 09:24:50;;;;;;;8.37;1.23;;;;;;;;;;4941867;29;20230;-79
2022/07/08 09:27:19;;;;;;;4.93;1.50;;;;;;;;;;4938807;29;20241;-80
2022/07/08 09:30:01;;;;;;;3.40;1.10;;;;;;;;;;4944640;29;20237;-81
2022/07/08 09:32:29;;;;;;;5.50;1.20;;;;;;;;;;4944999;29;20623;-80
2022/07/08 09:35:07;;;;;;;3.27;1.30;;;;;;;;;;4952024;29;20218;-81
2022/07/08 09:41:05;;;;;;;4.57;1.20;;;;;;;;;;4946123;28;20237;-80
2022/07/08 09:43:48;;;;;;;4.90;1.40;;;;;;;;;;4932263;29;20242;-81
2022/07/08 09:46:37;;;;;;;10.83;1.67;;;;;;;;;;4948053;29;20202;-80
2022/07/08 09:49:39;;;;;;;5.17;1.37;;;;;;;;;;4946861;28;20297;-81
2022/07/08 09:52:21;;;;;;;6.03;1.40;;;;;;;;;;4950628;29;20237;-79
2022/07/08 09:55:01;;;;;;;4.13;1.33;;;;;;;;;;4951360;29;20199;-80
2022/07/08 09:57:29;;;;;;;4.77;1.30;;;;;;;;;;4949059;29;20214;-81
2022/07/08 09:59:56;;;;;;;4.30;1.50;;;;;;;;;;4939246;29;20231;-81
2022/07/08 10:02:25;;;;;;;7.13;1.43;;;;;;;;;;4940617;29;20693;-81
2022/07/08 10:04:53;;;;;;;5.70;1.50;;;;;;;;;;4951405;29;20206;-81
2022/07/08 10:07:22;;;;;;;6.33;1.40;;;;;;;;;;4951576;29;20215;-80
2022/07/08 10:09:49;;;;;;;8.17;1.43;;;;;;;;;;4943968;28;20314;-80
2022/07/08 10:12:16;;;;;;;7.27;1.23;;;;;;;;;;4945825;29;20211;-81
2022/07/08 10:14:45;;;;;;;6.40;1.30;;;;;;;;;;4944668;29;20207;-81
2022/07/08 10:17:18;;;;;;;9.20;1.33;;;;;;;;;;4940346;29;20211;-82
2022/07/08 10:22:41;;;;;;;4.90;1.20;;;;;;;;;;4924817;29;20214;-79
2022/07/08 10:25:19;;;;;;;5.77;1.40;;;;;;;;;;4943926;29;20269;-80
2022/07/08 10:27:52;;;;;;;4.10;1.20;;;;;;;;;;4950630;29;20203;-80
2022/07/08 10:30:22;;;;;;;5.50;1.40;;;;;;;;;;4950274;29;20610;-79
2022/07/08 10:32:57;;;;;;;6.60;1.67;;;;;;;;;;4949786;29;20199;-81
2022/07/08 10:38:50;;;;;;;;;;;;;;;;;;;;;
2022/07/08 10:41:21;;;;;;;8.17;1.60;;;;;;;;;;4948408;29;20313;-80
2022/07/08 10:43:51;;;;;;;6.00;1.30;;;;;;;;;;4946125;29;20237;-82
2022/07/08 10:49:03;;;;;;;6.23;1.33;;;;;;;;;;4948436;29;20207;-80
2022/07/08 10:51:49;;;;;;;4.03;1.30;;;;;;;;;;4942294;29;20270;-80
2022/07/08 10:57:27;;;;;;;4.13;1.40;;;;;;;;;;4938123;29;20226;-80
2022/07/08 11:00:27;;;;;;;5.73;1.47;;;;;;;;;;4946819;29;20716;-80
2022/07/08 11:02:55;;;;;;;6.27;1.47;;;;;;;;;;4950391;29;20693;-81
2022/07/08 11:05:41;;;;;;;9.33;1.40;;;;;;;;;;4950269;29;20211;-81
2022/07/08 11:08:28;;;;;;;7.47;1.17;;;;;;;;;;4946969;29;20234;-80
2022/07/08 11:10:59;;;;;;;6.57;1.70;;;;;;;;;;4947770;29;20237;-80
2022/07/08 11:16:15;;;;;;;7.97;1.50;;;;;;;;;;4944329;29;20218;-81
2022/07/08 11:18:48;;;;;;;8.20;1.63;;;;;;;;;;4948842;29;20217;-81
2022/07/08 11:21:17;;;;;;;4.07;1.30;;;;;;;;;;4945871;29;20234;-81
2022/07/08 11:23:50;;;;;;;6.20;1.67;;;;;;;;;;4949735;29;20211;-80
2022/07/08 11:26:40;;;;;;;5.43;1.60;;;;;;;;;;4954563;29;20214;-80
2022/07/08 11:29:16;;;;;;;8.10;1.50;;;;;;;;;;4948193;28;20297;-80
2022/07/08 11:31:52;;;;;;;5.77;1.40;;;;;;;;;;4946108;29;20317;-80
2022/07/08 11:34:32;;;;;;;5.40;1.60;;;;;;;;;;4949216;29;20212;-80
2022/07/08 11:37:03;;;;;;;6.47;1.70;;;;;;;;;;4948913;29;20666;-80
2022/07/08 11:39:30;;;;;;;7.73;1.37;;;;;;;;;;4950888;28;20222;-80
2022/07/08 11:42:02;;;;;;;6.10;1.50;;;;;;;;;;4950407;29;20233;-81
2022/07/08 11:44:29;;;;;;;7.17;1.37;;;;;;;;;;4950219;29;20210;-81
2022/07/08 11:46:57;;;;;;;5.13;1.43;;;;;;;;;;4951567;29;20213;-81
2022/07/08 11:49:25;;;;;;;4.93;1.40;;;;;;;;;;4952963;29;20956;-80
2022/07/08 11:51:52;;;;;;;3.40;1.60;;;;;;;;;;4948640;29;20205;-81
2022/07/08 11:54:21;;;;;;;6.97;1.47;;;;;;;;;;4943331;29;20211;-81
2022/07/08 11:56:51;;;;;;;6.83;1.50;;;;;;;;;;4943056;29;20215;-81
2022/07/08 11:59:22;;;;;;;5.87;1.60;;;;;;;;;;4950784;28;20238;-81
2022/07/08 12:01:53;;;;;;;8.80;1.70;;;;;;;;;;4947819;29;20234;-80
2022/07/08 12:04:23;;;;;;;3.97;1.23;;;;;;;;;;4945594;29;20230;-80
2022/07/08 12:06:54;;;;;;;4.27;1.77;;;;;;;;;;4949802;29;20215;-81
2022/07/08 12:09:23;;;;;;;7.17;1.73;;;;;;;;;;4947035;28;20242;-80
2022/07/08 12:11:54;;;;;;;4.53;1.37;;;;;;;;;;4952098;29;20211;-80
2022/07/08 12:14:23;;;;;;;3.70;1.40;;;;;;;;;;4948490;29;20277;-80
2022/07/08 12:17:04;;;;;;;7.40;1.20;;;;;;;;;;4947861;29;20222;-81
2022/07/08 12:22:45;;;;;;;7.23;1.53;;;;;;;;;;4944968;29;20248;-81
2022/07/08 12:27:57;;;;;;;6.30;1.33;;;;;;;;;;4932204;29;20297;-81
2022/07/08 12:30:29;;;;;;;4.73;1.30;;;;;;;;;;4945717;29;20302;-81
2022/07/08 12:33:08;;;;;;;5.63;1.53;;;;;;;;;;4947967;29;20202;-80
2022/07/08 12:38:24;;;;;;;5.13;1.50;;;;;;;;;;4951807;29;20242;-82
2022/07/08 12:40:52;;;;;;;4.93;1.53;;;;;;;;;;4949982;29;20696;-81
2022/07/08 12:43:19;;;;;;;4.83;1.30;;;;;;;;;;4952471;29;20214;-81
2022/07/08 12:45:47;;;;;;;6.20;1.50;;;;;;;;;;4945312;29;20199;-82
2022/07/08 12:48:16;;;;;;;4.97;1.53;;;;;;;;;;4938339;28;20258;-82
2022/07/08 12:50:44;;;;;;;3.93;1.27;;;;;;;;;;4942127;29;20238;-81
2022/07/08 12:53:11;;;;;;;5.90;1.50;;;;;;;;;;4948449;29;20207;-82
2022/07/08 12:55:40;;;;;;;3.70;1.63;;;;;;;;;;4950731;29;20211;-82
2022/07/08 12:58:07;;;;;;;3.13;1.20;;;;;;;;;;4949324;29;20211;-80
2022/07/08 13:00:37;;;;;;;7.70;1.50;;;;;;;;;;4948803;29;20223;-80
2022/07/08 13:03:06;;;;;;;4.23;1.20;;;;;;;;;;4948583;29;20214;-82
2022/07/08 13:05:38;;;;;;;6.57;1.50;;;;;;;;;;4939676;29;20207;-80
2022/07/08 13:08:08;;;;;;;6.30;1.60;;;;;;;;;;4944829;29;20215;-82
2022/07/08 13:10:54;;;;;;;4.77;1.47;;;;;;;;;;4949278;29;20243;-83
2022/07/08 13:13:24;;;;;;;3.30;1.37;;;;;;;;;;4951460;29;20202;-83
2022/07/08 13:15:51;;;;;;;2.27;1.20;;;;;;;;;;4949782;29;20283;-83
2022/07/08 13:21:04;;;;;;;2.80;1.20;;;;;;;;;;4953578;28;20314;-81
2022/07/08 13:23:31;;;;;;;3.87;1.30;;;;;;;;;;4945613;29;20213;-82
2022/07/08 13:25:59;;;;;;;6.27;1.33;;;;;;;;;;4947283;29;20225;-81
2022/07/08 13:28:26;;;;;;;2.70;1.10;;;;;;;;;;4942264;29;20212;-83
2022/07/08 13:30:53;;;;;;;3.53;1.30;;;;;;;;;;4939740;29;20255;-82
2022/07/08 13:33:30;;;;;;;3.73;1.20;;;;;;;;;;4938627;29;20306;-82
2022/07/08 13:36:01;;;;;;;3.93;1.10;;;;;;;;;;4936593;29;20257;-82
2022/07/08 13:38:45;;;;;;;5.70;1.33;;;;;;;;;;4941527;29;20235;-82
2022/07/08 13:41:15;;;;;;;2.40;1.00;;;;;;;;;;4939730;29;20229;-82
2022/07/08 13:43:50;;;;;;;2.73;0.90;;;;;;;;;;4937706;29;20672;-82
2022/07/08 13:46:31;;;;;;;4.57;1.13;;;;;;;;;;4939969;29;20206;-83
2022/07/08 13:49:00;;;;;;;2.73;0.80;;;;;;;;;;4948321;29;20577;-82
2022/07/08 13:51:36;;;;;;;3.17;1.00;;;;;;;;;;4945989;29;20274;-81
2022/07/08 13:54:03;;;;;;;2.70;1.00;;;;;;;;;;4942495;29;20217;-82
2022/07/08 13:56:33;;;;;;;4.90;1.27;;;;;;;;;;4946100;29;20244;-82
2022/07/08 13:59:01;;;;;;;3.73;0.97;;;;;;;;;;4948524;29;20214;-81
2022/07/08 14:04:15;;;;;;;6.07;1.00;;;;;;;;;;4952621;29;20207;-80
2022/07/08 14:06:42;;;;;;;4.23;1.00;;;;;;;;;;4959599;29;20257;-81
2022/07/08 14:09:26;;;;;;;3.80;1.10;;;;;;;;;;4947511;29;20238;-81
2022/07/08 14:11:54;;;;;;;4.47;0.93;;;;;;;;;;4944931;29;20231;-81
2022/07/08 14:14:22;;;;;;;3.33;1.00;;;;;;;;;;4942064;29;20223;-81
2022/07/08 14:16:52;;;;;;;3.83;1.00;;;;;;;;;;4955543;29;20222;-80
2022/07/08 14:19:20;;;;;;;3.90;1.20;;;;;;;;;;4952895;29;20245;-82
2022/07/08 14:21:49;;;;;;;2.70;1.00;;;;;;;;;;4948631;29;20247;-81
2022/07/08 14:27:02;;;;;;;4.33;0.90;;;;;;;;;;4952346;29;20208;-82
2022/07/08 14:29:41;;;;;;;2.33;0.83;;;;;;;;;;4952902;28;20282;-80
2022/07/08 14:32:25;;;;;;;6.00;0.83;;;;;;;;;;4953348;29;20736;-81
2022/07/08 14:35:01;;;;;;;4.80;1.13;;;;;;;;;;4950609;29;20206;-80
2022/07/08 14:37:36;;;;;;;6.83;1.30;;;;;;;;;;4956340;29;20209;-81
2022/07/08 14:42:54;;;;;;;3.73;0.90;;;;;;;;;;4945428;29;21009;-80
2022/07/08 14:45:22;;;;;;;5.27;1.03;;;;;;;;;;4947137;29;20211;-82
2022/07/08 14:47:50;;;;;;;5.93;1.30;;;;;;;;;;4954464;29;20313;-81
2022/07/08 14:50:18;;;;;;;3.43;1.13;;;;;;;;;;4952926;28;20223;-82
2022/07/08 14:52:48;;;;;;;6.03;1.10;;;;;;;;;;4941133;29;20214;-81
2022/07/08 14:55:27;;;;;;;4.70;1.03;;;;;;;;;;4935801;29;21855;-80
2022/07/08 14:57:54;;;;;;;3.23;0.73;;;;;;;;;;4946334;29;20215;-81
2022/07/08 15:00:24;;;;;;;3.00;0.90;;;;;;;;;;4944686;29;20234;-80
2022/07/08 15:02:52;;;;;;;2.77;0.80;;;;;;;;;;4939256;29;20227;-81
2022/07/08 15:05:31;;;;;;;4.00;0.70;;;;;;;;;;4941679;29;20214;-81
2022/07/08 15:07:59;;;;;;;3.73;0.93;;;;;;;;;;4943919;29;20207;-82
2022/07/08 15:10:27;;;;;;;2.57;0.80;;;;;;;;;;4947290;28;20716;-82
2022/07/08 15:12:54;;;;;;;4.73;0.90;;;;;;;;;;4938354;29;20215;-82
2022/07/08 15:15:22;;;;;;;3.33;1.17;;;;;;;;;;4949513;29;20211;-81
2022/07/08 15:17:56;;;;;;;7.37;0.80;;;;;;;;;;4935074;29;20242;-81
2022/07/08 15:20:40;;;;;;;3.10;0.80;;;;;;;;;;4941005;29;20294;-80
2022/07/08 15:23:07;;;;;;;2.43;0.73;;;;;;;;;;4935595;29;20968;-81
2022/07/08 15:25:35;;;;;;;2.30;0.70;;;;;;;;;;4936371;29;20262;-81
2022/07/08 15:28:03;;;;;;;2.87;0.80;;;;;;;;;;4939131;29;20210;-81
2022/07/08 15:30:36;;;;;;;2.03;0.80;;;;;;;;;;4931726;29;20250;-82
2022/07/08 15:33:03;;;;;;;2.33;0.70;;;;;;;;;;4946881;29;20209;-81
2022/07/08 15:35:32;;;;;;;3.83;0.97;;;;;;;;;;4951837;29;20215;-80
2022/07/08 15:38:12;;;;;;;5.87;1.00;;;;;;;;;;4953609;29;20215;-80
2022/07/08 15:40:39;;;;;;;3.73;0.97;;;;;;;;;;4951740;29;20325;-80
2022/07/08 15:43:10;;;;;;;5.30;0.80;;;;;;;;;;4949078;29;20274;-80
2022/07/08 15:45:37;;;;;;;3.13;1.07;;;;;;;;;;4950492;29;20289;-80
2022/07/08 15:48:09;;;;;;;3.53;0.90;;;;;;;;;;4947855;29;20229;-80
2022/07/08 15:50:38;;;;;;;4.23;1.10;;;;;;;;;;4951925;29;20227;-80
2022/07/08 15:53:13;;;;;;;1.83;0.73;;;;;;;;;;4949935;29;20215;-79